Terminal Aerodrome Forecast
Issued by NWS Flagstaff, AZ

Home | Current Version | Previous Version | Text Only | Print | Product List | Glossary On
Versions: 1 2 3 4 5 6 7 8 9 10 11 12 13 14 15 16 17 18 19
000
FTUS45 KFGZ 230100 AAA
TAFINW
TAF AMD
KINW 230116Z 2301/2324 25011KT P6SM FEW090
     FM230500 VRB05KT P6SM SKC
     FM232100 28007KT P6SM SKC=

USA.gov is the U.S. government's official web portal to all federal, state and local government web resources and services.